createdAt,value
2023-03-28T00:00:39.874Z,73.05
2023-03-28T00:01:40.106Z,73.05
2023-03-28T00:02:40.518Z,73.05
2023-03-28T00:03:40.885Z,73.05
2023-03-28T00:04:41.032Z,73.05
2023-03-28T00:05:41.346Z,73.08
2023-03-28T00:06:41.617Z,73.05
2023-03-28T00:07:41.877Z,73.08
2023-03-28T00:08:43.159Z,73.08
2023-03-28T00:09:42.487Z,73.05
2023-03-28T00:10:42.796Z,72.94
2023-03-28T00:11:43.088Z,73.08
2023-03-28T00:12:43.507Z,73.18
2023-03-28T00:13:43.780Z,73.39
2023-03-28T00:14:44.074Z,73.49
2023-03-28T00:15:44.426Z,73.60
2023-03-28T00:16:44.771Z,73.49
2023-03-28T00:17:45.064Z,73.60
2023-03-28T00:18:45.347Z,73.60
2023-03-28T00:19:45.610Z,73.60
2023-03-28T00:20:45.958Z,73.70
2023-03-28T00:21:46.207Z,73.91
2023-03-28T00:22:46.512Z,73.91
2023-03-28T00:23:46.842Z,73.70
2023-03-28T00:24:47.105Z,73.60
2023-03-28T00:25:47.360Z,73.49
2023-03-28T00:26:47.697Z,73.60
2023-03-28T00:27:47.963Z,73.60
2023-03-28T00:28:48.263Z,73.49
2023-03-28T00:29:48.584Z,73.60
2023-03-28T00:30:48.849Z,73.49
2023-03-28T00:31:49.181Z,73.39
2023-03-28T00:32:49.560Z,73.28
2023-03-28T00:33:49.863Z,73.18
2023-03-28T00:34:50.152Z,72.98
2023-03-28T00:35:50.497Z,72.77
2023-03-28T00:36:50.727Z,72.77
2023-03-28T00:37:51.076Z,72.67
2023-03-28T00:38:51.249Z,72.77
2023-03-28T00:39:51.591Z,72.84
2023-03-28T00:40:51.755Z,72.67
2023-03-28T00:41:52.059Z,72.63
2023-03-28T00:42:52.377Z,72.63
2023-03-28T00:43:52.616Z,72.63
2023-03-28T00:44:52.965Z,72.53
2023-03-28T00:46:02.687Z,72.22
2023-03-28T00:46:54.564Z,72.36
2023-03-28T00:47:53.830Z,72.36
2023-03-28T00:48:54.149Z,72.46
2023-03-28T00:49:54.403Z,72.32
2023-03-28T00:50:54.726Z,72.25
2023-03-28T00:51:55.081Z,72.11
2023-03-28T00:52:55.375Z,72.11
2023-03-28T00:53:55.721Z,72.01
2023-03-28T00:54:56.062Z,72.01
2023-03-28T00:55:56.366Z,71.80
2023-03-28T00:56:56.669Z,71.80
2023-03-28T00:57:56.912Z,71.80
2023-03-28T00:58:57.212Z,71.84
2023-03-28T00:59:57.529Z,71.91
2023-03-28T01:00:57.861Z,72.01
2023-03-28T01:01:58.253Z,71.91
2023-03-28T01:02:58.536Z,71.80
2023-03-28T01:03:58.692Z,71.94
2023-03-28T01:04:59.024Z,71.91
2023-03-28T01:05:59.463Z,71.91
2023-03-28T01:06:59.597Z,71.80
2023-03-28T01:07:59.873Z,71.80
2023-03-28T01:09:00.209Z,71.91
2023-03-28T01:10:00.481Z,71.91
2023-03-28T01:11:01.200Z,71.80
2023-03-28T01:12:01.059Z,71.80
2023-03-28T01:13:01.354Z,71.80
2023-03-28T01:14:01.631Z,71.80
2023-03-28T01:15:01.974Z,71.80
2023-03-28T01:16:02.530Z,71.70
2023-03-28T01:17:02.638Z,71.59
2023-03-28T01:18:03.263Z,71.49
2023-03-28T01:19:03.202Z,71.59
2023-03-28T01:20:03.462Z,71.49
2023-03-28T01:21:03.827Z,71.39
2023-03-28T01:22:05.006Z,71.39
2023-03-28T01:23:04.434Z,71.28
2023-03-28T01:24:11.580Z,71.39
2023-03-28T01:25:06.056Z,71.39
2023-03-28T01:26:05.351Z,71.28
2023-03-28T01:27:05.832Z,71.39
2023-03-28T01:28:05.953Z,71.53
2023-03-28T01:29:06.346Z,71.63
2023-03-28T01:30:06.503Z,71.73
2023-03-28T01:31:06.893Z,71.84
2023-03-28T01:32:07.035Z,72.05
2023-03-28T01:33:07.437Z,72.15
2023-03-28T01:34:07.570Z,72.15
2023-03-28T01:35:07.867Z,72.15
2023-03-28T01:36:09.044Z,72.25
2023-03-28T01:37:08.472Z,72.25
2023-03-28T01:38:08.781Z,72.36
2023-03-28T01:39:09.110Z,72.25
2023-03-28T01:40:09.396Z,72.36
2023-03-28T01:41:09.764Z,72.25
2023-03-28T01:42:10.023Z,72.36
2023-03-28T01:43:10.379Z,72.36
2023-03-28T01:44:10.715Z,72.39
2023-03-28T01:45:10.986Z,72.60
2023-03-28T01:46:11.298Z,72.56
2023-03-28T01:47:11.602Z,72.60
2023-03-28T01:48:11.884Z,72.80
2023-03-28T01:49:12.238Z,72.80
2023-03-28T01:50:12.512Z,72.80
2023-03-28T01:51:12.737Z,72.91
2023-03-28T01:52:13.054Z,72.91
2023-03-28T01:53:13.334Z,72.77
2023-03-28T01:54:13.647Z,72.88
2023-03-28T01:55:13.943Z,72.88
2023-03-28T01:56:14.269Z,72.77
2023-03-28T01:57:14.621Z,72.88
2023-03-28T01:58:14.889Z,72.77
2023-03-28T01:59:15.251Z,72.77
2023-03-28T02:00:15.392Z,72.67
2023-03-28T02:01:15.811Z,72.46
2023-03-28T02:02:16.034Z,72.36
2023-03-28T02:03:16.418Z,72.46
2023-03-28T02:04:19.931Z,72.56
2023-03-28T02:05:16.879Z,72.70
2023-03-28T02:06:17.187Z,72.80
2023-03-28T02:07:17.511Z,73.01
2023-03-28T02:08:17.780Z,73.32
2023-03-28T02:09:18.082Z,73.63
2023-03-28T02:10:18.494Z,73.98
2023-03-28T02:11:18.651Z,74.19
2023-03-28T02:12:19.000Z,74.29
2023-03-28T02:13:19.263Z,74.29
2023-03-28T02:14:19.488Z,74.29
2023-03-28T02:15:19.888Z,74.40
2023-03-28T02:16:20.119Z,74.50
2023-03-28T02:17:20.481Z,74.40
2023-03-28T02:18:20.700Z,74.60
2023-03-28T02:19:21.040Z,74.60
2023-03-28T02:20:21.362Z,74.50
2023-03-28T02:21:21.677Z,74.50
2023-03-28T02:22:21.985Z,74.40
2023-03-28T02:23:22.254Z,74.40
2023-03-28T02:24:22.553Z,74.29
2023-03-28T02:25:22.882Z,74.29
2023-03-28T02:26:23.548Z,74.40
2023-03-28T02:27:23.427Z,74.29
2023-03-28T02:28:23.709Z,74.29
2023-03-28T02:29:24.034Z,74.19
2023-03-28T02:30:24.303Z,74.08
2023-03-28T02:31:24.636Z,74.19
2023-03-28T02:32:24.909Z,74.19
2023-03-28T02:33:25.200Z,74.19
2023-03-28T02:34:25.594Z,74.19
2023-03-28T02:35:25.883Z,74.29
2023-03-28T02:36:26.160Z,74.40
2023-03-28T02:37:26.507Z,74.50
2023-03-28T02:38:26.784Z,74.60
2023-03-28T02:39:27.076Z,74.50
2023-03-28T02:40:27.414Z,74.40
2023-03-28T02:41:27.725Z,74.29
2023-03-28T02:42:28.016Z,74.40
2023-03-28T02:43:28.367Z,74.29
2023-03-28T02:44:28.593Z,74.40
2023-03-28T02:45:28.960Z,74.60
2023-03-28T02:46:29.329Z,74.84
2023-03-28T02:47:29.641Z,74.91
2023-03-28T02:48:29.754Z,74.91
2023-03-28T02:49:37.590Z,75.05
2023-03-28T02:50:31.403Z,75.36
2023-03-28T02:51:30.689Z,75.26
2023-03-28T02:52:31.032Z,75.05
2023-03-28T02:53:31.333Z,74.91
2023-03-28T02:54:31.592Z,75.15
2023-03-28T02:55:31.870Z,75.36
2023-03-28T02:56:32.103Z,75.46
2023-03-28T02:57:32.422Z,75.36
2023-03-28T02:58:32.704Z,75.26
2023-03-28T02:59:33.015Z,75.15
2023-03-28T03:00:33.316Z,75.46
2023-03-28T03:01:33.631Z,75.46
2023-03-28T03:02:33.992Z,75.46
2023-03-28T03:03:34.291Z,75.36
2023-03-28T03:04:34.548Z,75.15
2023-03-28T03:05:34.894Z,74.95
2023-03-28T03:06:35.222Z,74.95
2023-03-28T03:07:35.497Z,75.05
2023-03-28T03:08:35.771Z,75.05
2023-03-28T03:09:36.145Z,75.05
2023-03-28T03:10:36.468Z,75.05
2023-03-28T03:11:36.749Z,74.95
2023-03-28T03:12:37.156Z,75.05
2023-03-28T03:13:37.332Z,74.95
2023-03-28T03:14:37.618Z,74.84
2023-03-28T03:15:37.993Z,74.81
2023-03-28T03:16:38.372Z,74.81
2023-03-28T03:17:38.623Z,74.81
2023-03-28T03:18:38.877Z,74.81
2023-03-28T03:19:39.670Z,74.71
2023-03-28T03:20:39.457Z,74.74
2023-03-28T03:21:39.799Z,74.74
2023-03-28T03:22:40.065Z,74.95
2023-03-28T03:23:40.366Z,74.95
2023-03-28T03:24:40.645Z,75.05
2023-03-28T03:25:40.903Z,75.05
2023-03-28T03:26:41.225Z,75.05
2023-03-28T03:27:41.571Z,75.05
2023-03-28T03:28:41.824Z,75.05
2023-03-28T03:29:42.147Z,75.05
2023-03-28T03:30:42.513Z,75.05
2023-03-28T03:31:42.725Z,74.95
2023-03-28T03:32:43.080Z,74.81
2023-03-28T03:33:43.358Z,74.50
2023-03-28T03:34:43.599Z,74.40
2023-03-28T03:35:44.013Z,74.50
2023-03-28T03:36:44.194Z,74.50
2023-03-28T03:37:44.651Z,74.29
2023-03-28T03:38:44.821Z,74.19
2023-03-28T03:39:45.139Z,74.08
2023-03-28T03:40:45.486Z,74.08
2023-03-28T03:41:45.773Z,74.19
2023-03-28T03:42:46.066Z,74.08
2023-03-28T03:43:47.313Z,73.98
2023-03-28T03:44:46.607Z,73.88
2023-03-28T03:45:47.043Z,73.77
2023-03-28T03:46:47.112Z,73.88
2023-03-28T03:47:47.497Z,73.88
2023-03-28T03:48:49.299Z,73.98
2023-03-28T03:49:47.997Z,73.98
2023-03-28T03:50:48.375Z,73.98
2023-03-28T03:51:48.584Z,73.88
2023-03-28T03:52:48.947Z,73.77
2023-03-28T03:53:49.251Z,73.98
2023-03-28T03:54:49.441Z,74.08
2023-03-28T03:55:49.752Z,73.98
2023-03-28T03:56:50.128Z,73.98
2023-03-28T03:57:50.286Z,74.08
2023-03-28T03:58:50.575Z,74.08
2023-03-28T03:59:50.821Z,73.98
2023-03-28T04:00:51.540Z,74.08
2023-03-28T04:01:51.487Z,74.08
2023-03-28T04:02:51.827Z,74.19
2023-03-28T04:03:52.097Z,74.29
2023-03-28T04:04:52.428Z,74.29
2023-03-28T04:05:52.725Z,74.19
2023-03-28T04:06:52.911Z,74.19
2023-03-28T04:07:53.233Z,74.15
2023-03-28T04:08:53.545Z,74.19
2023-03-28T04:09:53.903Z,74.29
2023-03-28T04:10:54.087Z,74.40
2023-03-28T04:11:54.449Z,74.36
2023-03-28T04:12:54.610Z,74.36
2023-03-28T04:13:54.842Z,74.36
2023-03-28T04:14:55.116Z,74.15
2023-03-28T04:15:55.512Z,74.05
2023-03-28T04:16:55.771Z,74.05
2023-03-28T04:17:56.171Z,73.94
2023-03-28T04:18:56.264Z,73.63
2023-03-28T04:19:56.784Z,73.63
2023-03-28T04:20:56.847Z,73.67
2023-03-28T04:21:57.657Z,74.08
2023-03-28T04:22:57.594Z,74.40
2023-03-28T04:23:58.613Z,74.40
2023-03-28T04:24:57.999Z,74.50
2023-03-28T04:25:58.520Z,74.40
2023-03-28T04:26:58.575Z,74.29
2023-03-28T04:27:58.865Z,74.29
2023-03-28T04:28:59.117Z,74.29
2023-03-28T04:29:59.504Z,74.19
2023-03-28T04:31:00.076Z,74.19
2023-03-28T04:31:59.975Z,74.08
2023-03-28T04:33:00.211Z,73.74
2023-03-28T04:34:00.664Z,73.43
2023-03-28T04:35:00.874Z,73.84
2023-03-28T04:36:01.540Z,73.57
2023-03-28T04:37:01.505Z,73.77
2023-03-28T04:38:01.830Z,73.67
2023-03-28T04:39:02.306Z,73.77
2023-03-28T04:40:02.443Z,73.77
2023-03-28T04:41:02.804Z,73.91
2023-03-28T04:42:02.994Z,74.71
2023-03-28T04:43:03.328Z,75.26
2023-03-28T04:44:03.590Z,75.33
2023-03-28T04:45:03.927Z,75.78
2023-03-28T04:46:04.373Z,76.19
2023-03-28T04:47:04.491Z,75.98
2023-03-28T04:48:04.752Z,75.98
2023-03-28T04:49:04.948Z,76.29
2023-03-28T04:50:05.333Z,76.40
2023-03-28T04:51:05.661Z,76.40
2023-03-28T04:52:05.908Z,76.40
2023-03-28T04:53:06.200Z,76.29
2023-03-28T04:54:06.434Z,76.40
2023-03-28T04:55:06.780Z,76.50
2023-03-28T04:56:07.118Z,76.29
2023-03-28T04:57:07.386Z,75.78
2023-03-28T04:58:07.610Z,75.67
2023-03-28T04:59:07.987Z,75.57
2023-03-28T05:00:08.254Z,75.15
2023-03-28T05:01:09.580Z,75.05
2023-03-28T05:02:08.779Z,75.05
2023-03-28T05:03:10.867Z,74.95
2023-03-28T05:04:09.320Z,75.29
2023-03-28T05:05:09.573Z,75.40
2023-03-28T05:06:09.880Z,75.40
2023-03-28T05:07:10.090Z,75.26
2023-03-28T05:08:10.489Z,75.15
2023-03-28T05:09:10.690Z,75.29
2023-03-28T05:10:12.891Z,75.29
2023-03-28T05:11:11.342Z,75.50
2023-03-28T05:12:11.676Z,76.54
2023-03-28T05:13:11.945Z,77.06
2023-03-28T05:14:12.189Z,77.26
2023-03-28T05:15:23.004Z,77.37
2023-03-28T05:16:14.001Z,77.12
2023-03-28T05:17:13.206Z,77.47
2023-03-28T05:18:13.561Z,77.89
2023-03-28T05:19:13.792Z,78.30
2023-03-28T05:20:14.035Z,78.37
2023-03-28T05:21:14.345Z,77.95
2023-03-28T05:22:14.708Z,76.85
2023-03-28T05:23:15.056Z,76.64
2023-03-28T05:24:15.294Z,76.64
2023-03-28T05:25:15.707Z,76.95
2023-03-28T05:26:15.891Z,77.16
2023-03-28T05:27:16.169Z,76.61
2023-03-28T05:28:16.462Z,76.02
2023-03-28T05:29:16.647Z,75.71
2023-03-28T05:30:17.013Z,75.81
2023-03-28T05:31:17.441Z,75.64
2023-03-28T05:32:17.552Z,75.95
2023-03-28T05:33:17.855Z,76.16
2023-03-28T05:34:18.135Z,76.26
2023-03-28T05:35:18.462Z,76.26
2023-03-28T05:36:18.739Z,76.37
2023-03-28T05:37:18.979Z,76.37
2023-03-28T05:38:19.177Z,76.47
2023-03-28T05:39:19.421Z,76.47
2023-03-28T05:40:19.844Z,76.47
2023-03-28T05:41:20.082Z,76.47
2023-03-28T05:42:20.425Z,76.47
2023-03-28T05:43:20.690Z,76.26
2023-03-28T05:44:20.976Z,76.47
2023-03-28T05:45:21.273Z,76.68
2023-03-28T05:46:21.486Z,76.57
2023-03-28T05:47:22.304Z,76.37
2023-03-28T05:48:22.164Z,76.37
2023-03-28T05:49:22.501Z,76.33
2023-03-28T05:50:22.712Z,76.02
2023-03-28T05:51:23.005Z,75.60
2023-03-28T05:52:23.245Z,75.60
2023-03-28T05:53:23.538Z,75.29
2023-03-28T05:54:23.974Z,75.29
2023-03-28T05:55:24.027Z,75.29
2023-03-28T05:56:24.275Z,75.40
2023-03-28T05:57:24.519Z,75.29
2023-03-28T05:58:24.907Z,75.09
2023-03-28T05:59:25.179Z,75.09
2023-03-28T06:00:25.521Z,75.29
2023-03-28T06:01:25.663Z,75.40
2023-03-28T06:02:25.947Z,75.50
2023-03-28T06:03:26.182Z,75.40
2023-03-28T06:04:26.709Z,75.64
2023-03-28T06:05:26.860Z,75.95
2023-03-28T06:06:27.169Z,76.37
2023-03-28T06:07:39.324Z,76.26
2023-03-28T06:08:28.649Z,76.19
2023-03-28T06:09:27.920Z,76.99
2023-03-28T06:10:28.315Z,76.99
2023-03-28T06:11:28.538Z,76.68
2023-03-28T06:12:28.788Z,76.37
2023-03-28T06:13:29.087Z,76.23
2023-03-28T06:14:29.368Z,76.02
2023-03-28T06:15:29.634Z,75.81
2023-03-28T06:16:30.090Z,75.71
2023-03-28T06:17:30.457Z,75.81
2023-03-28T06:18:30.593Z,75.60
2023-03-28T06:19:30.881Z,75.50
2023-03-28T06:20:31.571Z,75.29
2023-03-28T06:21:31.420Z,75.19
2023-03-28T06:22:31.794Z,74.98
2023-03-28T06:23:31.864Z,74.63
2023-03-28T06:24:32.213Z,74.53
2023-03-28T06:25:32.450Z,74.43
2023-03-28T06:26:32.680Z,74.43
2023-03-28T06:27:33.110Z,74.22
2023-03-28T06:28:33.427Z,74.01
2023-03-28T06:29:33.538Z,73.91
2023-03-28T06:30:33.846Z,74.22
2023-03-28T06:31:34.100Z,74.32
2023-03-28T06:32:34.819Z,74.22
2023-03-28T06:33:34.676Z,74.22
2023-03-28T06:34:34.954Z,74.11
2023-03-28T06:35:35.251Z,73.91
2023-03-28T06:36:35.615Z,73.88
2023-03-28T06:37:36.131Z,73.91
2023-03-28T06:38:36.195Z,73.67
2023-03-28T06:39:36.439Z,73.57
2023-03-28T06:40:36.752Z,73.36
2023-03-28T06:41:37.034Z,73.01
2023-03-28T06:42:37.334Z,73.22
2023-03-28T06:43:37.543Z,73.01
2023-03-28T06:44:37.811Z,72.56
2023-03-28T06:45:38.077Z,72.15
2023-03-28T06:46:38.554Z,71.39
2023-03-28T06:47:38.686Z,70.87
2023-03-28T06:48:38.931Z,70.53
2023-03-28T06:49:39.238Z,70.32
2023-03-28T06:50:39.473Z,70.21
2023-03-28T06:51:39.734Z,70.21
2023-03-28T06:52:40.048Z,69.98
2023-03-28T06:53:40.336Z,70.39
2023-03-28T06:54:40.595Z,70.18
2023-03-28T06:55:40.972Z,70.18
2023-03-28T06:56:41.166Z,69.95
2023-03-28T06:57:41.393Z,69.95
2023-03-28T06:58:41.703Z,69.74
2023-03-28T06:59:42.013Z,69.43
2023-03-28T07:00:42.235Z,69.12
2023-03-28T07:01:42.554Z,68.70
2023-03-28T07:02:43.020Z,68.49
2023-03-28T07:03:43.439Z,68.57
2023-03-28T07:04:43.304Z,68.26
2023-03-28T07:05:43.582Z,68.05
2023-03-28T07:06:43.829Z,68.02
2023-03-28T07:07:44.172Z,68.12
2023-03-28T07:08:44.587Z,68.12
2023-03-28T07:09:44.703Z,68.23
2023-03-28T07:10:44.927Z,68.09
2023-03-28T07:11:45.199Z,68.19
2023-03-28T07:12:45.516Z,68.61
2023-03-28T07:13:45.814Z,68.43
2023-03-28T07:14:46.168Z,69.09
2023-03-28T07:15:46.317Z,69.71
2023-03-28T07:16:46.901Z,70.36
2023-03-28T07:17:46.825Z,70.53
2023-03-28T07:18:47.101Z,69.40
2023-03-28T07:19:47.398Z,68.54
2023-03-28T07:20:54.870Z,68.12
2023-03-28T07:21:49.044Z,67.61
2023-03-28T07:22:48.513Z,67.47
2023-03-28T07:23:48.748Z,66.85
2023-03-28T07:24:48.829Z,66.96
2023-03-28T07:25:49.127Z,67.16
2023-03-28T07:26:49.449Z,66.82
2023-03-28T07:27:49.729Z,66.20
2023-03-28T07:28:49.931Z,66.51
2023-03-28T07:29:50.437Z,66.72
2023-03-28T07:30:50.434Z,67.24
2023-03-28T07:31:50.858Z,66.79
2023-03-28T07:32:58.716Z,65.73
2023-03-28T07:33:52.842Z,65.28
2023-03-28T07:34:51.644Z,64.95
2023-03-28T07:35:51.923Z,64.84
2023-03-28T07:36:52.159Z,64.40
2023-03-28T07:37:52.332Z,64.06
2023-03-28T07:38:52.580Z,62.90
2023-03-28T07:39:52.856Z,62.70
2023-03-28T07:40:53.394Z,61.84
2023-03-28T07:41:53.437Z,61.33
2023-03-28T07:42:53.841Z,61.56
2023-03-28T07:43:54.031Z,62.65
2023-03-28T07:44:54.230Z,63.57
2023-03-28T07:45:54.568Z,64.19
2023-03-28T07:46:54.926Z,63.89
2023-03-28T07:47:55.159Z,63.96
2023-03-28T07:48:55.390Z,63.34
2023-03-28T07:49:55.699Z,63.13
2023-03-28T07:50:56.005Z,62.59
2023-03-28T07:51:56.252Z,62.15
2023-03-28T07:52:56.528Z,61.19
2023-03-28T07:53:56.840Z,60.45
2023-03-28T07:54:57.084Z,60.24
2023-03-28T07:55:57.274Z,59.59
2023-03-28T07:56:57.688Z,59.19
2023-03-28T07:57:57.916Z,59.83
2023-03-28T07:58:58.116Z,60.35
2023-03-28T07:59:58.692Z,59.34
2023-03-28T08:00:59.295Z,59.75
2023-03-28T08:01:58.970Z,59.11
2023-03-28T08:02:59.434Z,58.59
2023-03-28T08:04:00.405Z,58.80
2023-03-28T08:04:59.955Z,59.42
2023-03-28T08:06:00.438Z,58.26
2023-03-28T08:07:00.751Z,57.93
2023-03-28T08:08:00.805Z,57.72
2023-03-28T08:09:01.056Z,57.49
2023-03-28T08:10:01.253Z,57.26
2023-03-28T08:11:01.676Z,57.13
2023-03-28T08:12:01.875Z,55.79
2023-03-28T08:13:02.108Z,54.53
2023-03-28T08:14:02.314Z,53.90
2023-03-28T08:15:02.771Z,53.80
2023-03-28T08:16:03.079Z,53.18
2023-03-28T08:17:03.361Z,53.28
2023-03-28T08:18:03.708Z,53.46
2023-03-28T08:20:05.199Z,53.23
2023-03-28T08:21:04.570Z,52.44
2023-03-28T08:22:04.704Z,51.72
2023-03-28T08:23:05.053Z,52.47
2023-03-28T08:24:05.408Z,52.47
2023-03-28T08:25:05.727Z,52.13
2023-03-28T08:26:05.910Z,52.03
2023-03-28T08:27:06.316Z,51.10
2023-03-28T08:28:06.525Z,51.03
2023-03-28T08:29:06.954Z,51.44
2023-03-28T08:30:07.260Z,51.54
2023-03-28T08:31:07.613Z,51.10
2023-03-28T08:32:08.124Z,50.88
2023-03-28T08:33:08.168Z,50.85
2023-03-28T08:34:08.353Z,50.12
2023-03-28T08:35:09.133Z,49.75
2023-03-28T08:36:08.855Z,50.57
2023-03-28T08:37:09.231Z,50.26
2023-03-28T08:38:11.331Z,51.44
2023-03-28T08:39:09.667Z,50.78
2023-03-28T08:40:10.050Z,50.42
2023-03-28T08:41:10.373Z,50.80
2023-03-28T08:42:10.572Z,49.24
2023-03-28T08:43:10.908Z,48.27
2023-03-28T08:44:11.207Z,47.85
2023-03-28T08:45:11.558Z,48.09
2023-03-28T08:46:11.777Z,47.86
2023-03-28T08:47:12.033Z,47.61
2023-03-28T08:48:12.441Z,47.08
2023-03-28T08:49:12.657Z,46.57
2023-03-28T08:50:13.537Z,45.84
2023-03-28T08:51:13.400Z,45.76
2023-03-28T08:52:13.417Z,46.70
2023-03-28T08:53:13.656Z,47.08
2023-03-28T08:54:13.952Z,46.75
2023-03-28T08:55:14.221Z,46.14
2023-03-28T08:56:14.537Z,46.33
2023-03-28T08:57:14.900Z,45.61
2023-03-28T08:58:15.035Z,45.53
2023-03-28T08:59:15.357Z,45.35
2023-03-28T09:00:15.577Z,45.78
2023-03-28T09:01:15.858Z,46.41
2023-03-28T09:02:16.430Z,46.08
2023-03-28T09:03:16.557Z,45.86
2023-03-28T09:04:16.822Z,45.53
2023-03-28T09:05:23.735Z,44.90
2023-03-28T09:06:18.292Z,44.71
2023-03-28T09:07:17.596Z,44.65
2023-03-28T09:08:19.722Z,45.57
2023-03-28T09:09:18.314Z,45.90
2023-03-28T09:10:18.445Z,46.37
2023-03-28T09:11:18.796Z,46.14
2023-03-28T09:12:19.238Z,44.46
2023-03-28T09:13:20.249Z,43.84
2023-03-28T09:14:19.725Z,42.80
2023-03-28T09:15:19.950Z,42.71
2023-03-28T09:16:20.284Z,42.30
2023-03-28T09:17:20.609Z,41.88
2023-03-28T09:18:20.832Z,41.45
2023-03-28T09:19:21.148Z,41.28
2023-03-28T09:20:21.381Z,41.67
2023-03-28T09:21:21.646Z,41.57
2023-03-28T09:22:21.928Z,41.57
2023-03-28T09:23:22.231Z,40.76
2023-03-28T09:24:22.445Z,40.45
2023-03-28T09:25:22.838Z,41.00
2023-03-28T09:26:23.144Z,41.30
2023-03-28T09:27:23.401Z,41.96
2023-03-28T09:28:23.657Z,42.65
2023-03-28T09:29:24.105Z,42.49
2023-03-28T09:30:24.197Z,41.96
2023-03-28T09:31:27.004Z,41.00
2023-03-28T09:32:25.121Z,40.60
2023-03-28T09:33:25.279Z,40.60
2023-03-28T09:34:25.513Z,40.41
2023-03-28T09:35:25.904Z,40.17
2023-03-28T09:36:31.542Z,39.36
2023-03-28T09:37:27.233Z,40.17
2023-03-28T09:38:26.562Z,39.34
2023-03-28T09:39:26.804Z,38.71
2023-03-28T09:40:27.095Z,38.51
2023-03-28T09:41:27.357Z,38.20
2023-03-28T09:42:27.702Z,38.61
2023-03-28T09:43:27.995Z,38.20
2023-03-28T09:44:28.168Z,37.78
2023-03-28T09:45:28.515Z,38.09
2023-03-28T09:46:28.902Z,38.31
2023-03-28T09:47:29.177Z,38.12
2023-03-28T09:48:29.341Z,38.73
2023-03-28T09:49:29.628Z,38.20
2023-03-28T09:50:29.890Z,37.98
2023-03-28T09:51:30.116Z,37.78
2023-03-28T09:52:30.446Z,37.98
2023-03-28T09:53:32.505Z,37.66
2023-03-28T09:54:31.010Z,36.53
2023-03-28T09:55:31.362Z,36.85
2023-03-28T09:56:31.449Z,36.68
2023-03-28T09:57:31.750Z,39.11
2023-03-28T09:58:31.995Z,40.03
2023-03-28T09:59:32.192Z,40.12
2023-03-28T10:00:32.429Z,40.14
2023-03-28T10:01:32.892Z,40.17
2023-03-28T10:02:33.055Z,40.80
2023-03-28T10:03:33.273Z,41.08
2023-03-28T10:04:33.567Z,40.43
2023-03-28T10:05:33.831Z,40.45
2023-03-28T10:06:34.114Z,40.23
2023-03-28T10:07:34.342Z,39.69
2023-03-28T10:08:34.566Z,38.81
2023-03-28T10:09:34.894Z,37.78
2023-03-28T10:10:35.219Z,37.56
2023-03-28T10:11:35.443Z,38.45
2023-03-28T10:12:35.747Z,38.32
2023-03-28T10:13:36.044Z,38.09
2023-03-28T10:14:36.455Z,37.26
2023-03-28T10:15:36.710Z,37.34
2023-03-28T10:16:37.051Z,36.19
2023-03-28T10:17:37.388Z,37.19
2023-03-28T10:18:37.405Z,40.59
2023-03-28T10:19:37.795Z,43.14
2023-03-28T10:20:38.073Z,46.11
2023-03-28T10:21:38.344Z,47.01
2023-03-28T10:22:38.901Z,45.80
2023-03-28T10:23:38.980Z,44.85
2023-03-28T10:24:43.243Z,43.85
2023-03-28T10:25:39.573Z,42.45
2023-03-28T10:26:39.810Z,40.84
2023-03-28T10:27:40.098Z,38.84
2023-03-28T10:28:40.318Z,37.64
2023-03-28T10:29:40.625Z,39.22
2023-03-28T10:30:40.890Z,39.81
2023-03-28T10:31:41.300Z,39.44
2023-03-28T10:32:41.430Z,41.13
2023-03-28T10:33:41.640Z,40.82
2023-03-28T10:34:41.948Z,39.76
2023-03-28T10:35:42.400Z,38.98
2023-03-28T10:36:42.408Z,37.18
2023-03-28T10:37:42.706Z,35.90
2023-03-28T10:38:42.971Z,34.40
2023-03-28T10:39:43.303Z,34.60
2023-03-28T10:40:43.562Z,33.61
2023-03-28T10:41:43.817Z,35.33
2023-03-28T10:42:44.083Z,35.58
2023-03-28T10:43:44.366Z,34.75
2023-03-28T10:44:44.654Z,34.22
2023-03-28T10:45:44.954Z,33.78
2023-03-28T10:46:45.242Z,33.61
2023-03-28T10:47:45.534Z,34.82
2023-03-28T10:48:45.740Z,33.91
2023-03-28T10:49:46.154Z,34.30
2023-03-28T10:50:46.336Z,33.66
2023-03-28T10:51:46.643Z,32.81
2023-03-28T10:52:46.845Z,32.82
2023-03-28T10:53:47.094Z,32.32
2023-03-28T10:54:47.340Z,31.70
2023-03-28T10:55:47.636Z,31.38
2023-03-28T10:56:47.860Z,30.84
2023-03-28T10:57:48.314Z,29.94
2023-03-28T10:58:48.434Z,30.04
2023-03-28T10:59:49.872Z,29.94
2023-03-28T11:00:49.030Z,30.02
2023-03-28T11:01:49.549Z,29.74
2023-03-28T11:02:50.149Z,29.91
2023-03-28T11:03:50.077Z,29.94
2023-03-28T11:04:50.208Z,30.68
2023-03-28T11:06:02.088Z,31.42
2023-03-28T11:06:51.804Z,32.17
2023-03-28T11:07:51.073Z,34.43
2023-03-28T11:08:51.430Z,37.14
2023-03-28T11:09:51.761Z,39.09
2023-03-28T11:10:51.991Z,39.58
2023-03-28T11:11:52.374Z,39.32
2023-03-28T11:12:55.549Z,38.27
2023-03-28T11:13:52.800Z,37.76
2023-03-28T11:14:53.085Z,37.76
2023-03-28T11:15:53.378Z,37.68
2023-03-28T11:16:53.614Z,37.87
2023-03-28T11:17:54.022Z,37.52
2023-03-28T11:18:54.171Z,37.29
2023-03-28T11:19:54.364Z,35.63
2023-03-28T11:20:54.684Z,34.48
2023-03-28T11:21:55.416Z,34.40
2023-03-28T11:23:05.153Z,34.48
2023-03-28T11:23:56.663Z,33.86
2023-03-28T11:24:55.893Z,33.78
2023-03-28T11:25:56.163Z,34.06
2023-03-28T11:27:08.599Z,33.80
2023-03-28T11:27:57.905Z,33.81
2023-03-28T11:28:57.078Z,34.00
2023-03-28T11:30:00.026Z,33.80
2023-03-28T11:30:57.809Z,34.20
2023-03-28T11:31:58.043Z,33.47
2023-03-28T11:32:58.374Z,33.58
2023-03-28T11:33:58.640Z,33.80
2023-03-28T11:34:58.716Z,34.64
2023-03-28T11:35:59.167Z,35.46
2023-03-28T11:36:59.383Z,35.88
2023-03-28T11:38:00.581Z,35.50
2023-03-28T11:39:02.184Z,36.43
2023-03-28T11:40:06.074Z,35.60
2023-03-28T11:41:02.233Z,35.36
2023-03-28T11:42:01.464Z,34.99
2023-03-28T11:43:02.460Z,35.63
2023-03-28T11:44:03.053Z,35.97
2023-03-28T11:45:05.252Z,36.24
2023-03-28T11:46:05.828Z,35.21
2023-03-28T11:47:02.533Z,34.78
2023-03-28T11:48:02.658Z,34.78
2023-03-28T11:49:02.903Z,33.94
2023-03-28T11:50:03.203Z,34.06
2023-03-28T11:51:03.456Z,34.05
2023-03-28T11:52:03.782Z,33.84
2023-03-28T11:53:03.956Z,33.55
2023-03-28T11:54:05.248Z,33.65
2023-03-28T11:55:04.573Z,33.25
2023-03-28T11:56:04.906Z,32.74
2023-03-28T11:57:05.111Z,32.51
2023-03-28T11:58:05.375Z,33.12
2023-03-28T11:59:05.774Z,33.32
2023-03-28T12:00:06.291Z,33.20
2023-03-28T12:01:06.377Z,33.72
2023-03-28T12:02:06.720Z,33.83
2023-03-28T12:03:06.986Z,33.64
2023-03-28T12:04:07.096Z,33.62
2023-03-28T12:05:07.355Z,34.19
2023-03-28T12:06:09.660Z,35.64
2023-03-28T12:07:07.857Z,35.73
2023-03-28T12:08:08.348Z,36.04
2023-03-28T12:09:08.439Z,35.95
2023-03-28T12:10:08.750Z,36.71
2023-03-28T12:11:09.060Z,37.65
2023-03-28T12:12:09.399Z,38.07
2023-03-28T12:13:09.469Z,38.60
2023-03-28T12:14:12.541Z,38.78
2023-03-28T12:15:10.007Z,38.68
2023-03-28T12:16:10.337Z,38.78
2023-03-28T12:17:10.649Z,38.85
2023-03-28T12:18:10.946Z,38.71
2023-03-28T12:19:11.109Z,37.15
2023-03-28T12:20:11.422Z,36.73
2023-03-28T12:21:11.673Z,36.22
2023-03-28T12:22:11.927Z,36.43
2023-03-28T12:23:12.264Z,36.63
2023-03-28T12:24:12.526Z,36.82
2023-03-28T12:25:12.780Z,37.04
2023-03-28T12:26:12.980Z,37.02
2023-03-28T12:27:13.267Z,36.07
2023-03-28T12:28:13.619Z,35.46
2023-03-28T12:29:13.855Z,35.66
2023-03-28T12:30:14.047Z,35.39
2023-03-28T12:31:14.447Z,36.85
2023-03-28T12:32:14.864Z,37.71
2023-03-28T12:33:15.169Z,37.58
2023-03-28T12:34:15.374Z,36.53
2023-03-28T12:35:15.616Z,36.08
2023-03-28T12:36:15.933Z,35.65
2023-03-28T12:37:17.100Z,35.24
2023-03-28T12:38:16.539Z,34.82
2023-03-28T12:39:18.222Z,34.85
2023-03-28T12:40:17.050Z,36.02
2023-03-28T12:41:17.359Z,37.27
2023-03-28T12:42:17.604Z,37.58
2023-03-28T12:43:17.829Z,37.49
2023-03-28T12:44:19.839Z,38.75
2023-03-28T12:45:18.477Z,39.38
2023-03-28T12:46:18.763Z,39.78
2023-03-28T12:47:19.046Z,39.60
2023-03-28T12:48:19.266Z,40.11
2023-03-28T12:49:19.636Z,39.09
2023-03-28T12:50:19.870Z,38.97
2023-03-28T12:51:20.081Z,39.29
2023-03-28T12:52:20.482Z,39.72
2023-03-28T12:53:20.731Z,39.62
2023-03-28T12:54:21.049Z,39.74
2023-03-28T12:55:21.252Z,40.67
2023-03-28T12:56:21.680Z,41.20
2023-03-28T12:57:36.032Z,42.14